Date,TemperatureHighF,TemperatureAvgF,TemperatureLowF,DewpointHighF,DewpointAvgF,DewpointLowF,HumidityHigh,HumidityAvg,HumidityLow,PressureMaxIn,PressureMinIn,WindSpeedMaxMPH,WindSpeedAvgMPH,GustSpeedMaxMPH,PrecipitationSumIn
2012-1-1,57,46,31,45,37,27,89,72,52,29.93,29.52,16,3,24,0.02
2012-1-2,44,36,28,28,20,15,63,54,43,29.78,29.66,17,4,26,0.00
2012-1-3,32,26,16,20,11,0,77,55,36,30.09,29.76,15,4,24,0.00
2012-1-4,32,22,12,19,12,0,75,63,48,30.11,29.78,9,1,13,0.00
2012-1-5,47,35,22,29,23,15,78,62,45,29.83,29.73,9,1,17,0.00
2012-1-6,67,43,27,39,29,21,81,60,35,29.75,29.60,11,2,14,0.00
2012-1-7,68,49,32,47,32,25,79,54,39,29.91,29.59,14,2,23,0.00
2012-1-8,48,38,27,33,27,20,83,65,48,30.15,29.90,8,1,14,0.00
2012-1-9,42,33,25,30,26,20,85,76,56,30.15,29.84,11,1,14,0.00
2012-1-10,54,38,28,38,30,24,89,73,45,29.85,29.78,8,1,12,0.00
2012-1-11,42,35,24,39,31,21,90,86,76,29.85,29.30,8,0,12,0.87
2012-1-12,55,46,40,47,42,37,90,86,74,29.41,29.15,9,1,17,0.08
2012-1-13,46,33,27,43,21,15,90,62,50,29.78,29.14,18,6,43,0.14
2012-1-14,38,29,24,21,16,14,67,57,47,29.98,29.77,9,3,15,0.00
2012-1-15,34,27,21,17,13,10,76,56,39,30.38,29.98,9,1,13,0.00
2012-1-16,41,30,16,34,21,11,83,68,49,30.37,29.90,16,2,24,0.08
2012-1-17,57,48,39,46,40,33,86,74,59,29.90,29.46,14,3,20,0.04
2012-1-18,53,36,20,39,22,13,76,56,45,30.00,29.56,18,4,21,0.00
2012-1-19,38,27,15,28,17,10,83,69,49,30.01,29.70,12,1,16,0.00
2012-1-20,36,30,23,28,16,8,82,58,42,30.11,29.77,10,2,16,0.00
2012-1-21,33,29,25,27,24,20,87,82,74,30.12,29.76,7,0,8,0.00
2012-1-22,34,29,26,27,23,20,87,79,70,30.26,30.12,6,1,8,0.00
2012-1-23,42,35,30,39,32,26,90,89,86,30.15,29.65,3,0,6,0.28
2012-1-24,55,44,33,40,34,30,91,71,50,30.04,29.71,9,2,15,0.00
2012-1-25,48,41,35,34,30,27,76,67,57,30.19,29.98,10,1,13,0.00
2012-1-26,41,39,38,37,34,31,90,83,73,30.00,29.53,6,1,8,0.28
2012-1-27,60,46,39,54,38,28,91,74,56,29.83,29.27,15,3,23,0.22
2012-1-28,54,41,32,36,28,14,83,60,39,30.00,29.71,16,3,26,0.00
2012-1-29,47,38,27,30,20,14,72,49,37,30.07,29.81,18,3,25,0.00
2012-1-30,46,36,28,24,20,14,68,53,38,30.19,29.98,12,1,17,0.00
2012-1-31,69,48,28,37,29,21,78,52,31,29.99,29.83,8,1,8,0.00
2012-2-1,67,56,42,49,41,32,84,58,44,29.87,29.80,10,2,17,0.00
2012-2-2,53,45,39,41,35,26,87,69,49,30.17,29.78,14,3,21,0.00
2012-2-3,50,38,28,32,28,23,84,66,48,30.33,30.16,9,1,12,0.00
2012-2-4,44,34,27,34,29,23,90,83,59,30.16,29.92,9,1,13,0.06
2012-2-5,44,36,28,37,31,24,90,83,61,30.05,29.89,6,0,8,0.20
2012-2-6,54,36,21,36,27,18,88,72,40,30.06,29.86,10,1,12,0.00
2012-2-7,54,39,26,35,27,22,86,65,41,30.06,29.88,11,2,14,0.00
2012-2-8,36,33,28,32,29,23,89,85,77,30.07,29.94,1,0,1,0.04
2012-2-9,45,35,24,30,24,18,89,66,42,30.08,29.98,8,1,13,0.08
2012-2-10,45,34,22,31,26,18,89,75,50,30.01,29.72,7,1,12,0.00
2012-2-11,40,32,23,34,25,9,90,76,53,29.80,29.48,14,3,23,0.14
2012-2-12,32,26,21,15,12,9,61,55,48,29.95,29.80,14,4,22,0.00
2012-2-13,49,36,26,25,19,14,65,51,35,30.00,29.87,11,2,20,0.00
2012-2-14,53,40,33,32,27,22,71,60,41,29.90,29.74,7,1,10,0.00
2012-2-15,53,44,35,36,31,27,75,61,47,30.10,29.84,9,1,13,0.00
2012-2-16,48,42,35,43,36,28,85,81,75,30.09,29.80,9,0,17,0.22
2012-2-17,54,46,34,41,32,24,87,62,40,29.94,29.81,11,2,15,0.00
2012-2-18,62,44,27,36,28,22,82,57,34,29.93,29.67,14,3,22,0.00
2012-2-19,45,38,31,28,24,20,70,57,45,29.94,29.73,12,3,14,0.00
2012-2-20,49,38,26,25,22,17,68,52,36,30.15,29.82,11,3,21,0.00
2012-2-21,51,39,23,33,27,17,81,63,48,30.13,29.64,18,4,25,0.00
2012-2-22,64,53,36,41,36,28,78,53,33,29.66,29.28,16,4,25,0.00
2012-2-23,65,56,46,42,37,33,71,51,35,29.47,29.26,12,2,16,0.00
2012-2-24,54,47,42,46,38,27,85,74,48,29.50,29.21,16,4,26,0.39
2012-2-25,44,39,34,28,22,18,66,52,42,30.08,29.48,17,6,28,0.00
2012-2-26,50,40,29,28,22,18,65,49,37,30.28,30.08,10,2,15,0.00
2012-2-27,68,48,24,39,29,18,80,52,30,30.17,29.92,17,3,40,0.00
2012-2-28,55,44,32,28,24,20,63,47,33,30.30,30.09,9,2,18,0.00
2012-2-29,44,41,33,40,35,24,87,79,63,30.09,29.45,10,1,10,1.21
2012-3-1,67,50,38,48,37,27,89,64,40,29.80,29.42,15,3,22,0.00
2012-3-2,54,42,29,43,34,24,86,72,56,29.85,29.43,14,2,24,0.34
2012-3-3,61,50,43,44,34,23,88,59,30,29.58,29.33,12,2,22,0.20
2012-3-4,46,39,32,28,24,20,68,55,43,29.71,29.52,11,2,20,0.00
2012-3-5,45,35,27,29,21,16,77,59,44,30.28,29.71,19,1,23,0.00
2012-3-6,51,38,23,29,23,16,78,55,40,30.46,30.27,14,1,22,0.00
2012-3-7,69,51,28,43,34,22,79,55,33,30.32,30.09,14,4,22,0.00
2012-3-8,74,62,50,54,47,38,75,58,46,30.10,29.73,18,5,29,0.04
2012-3-9,57,47,36,46,28,18,75,48,35,30.19,29.84,16,3,26,0.06
2012-3-10,48,38,30,21,18,15,58,44,30,30.39,30.19,9,2,16,0.00
2012-3-11,67,47,26,38,29,17,77,52,33,30.33,30.14,10,1,13,0.00
2012-3-12,74,54,33,46,37,27,80,55,33,30.17,29.89,8,1,13,0.00
2012-3-13,84,69,54,61,52,44,78,56,39,29.91,29.78,13,2,24,0.00
2012-3-14,82,65,53,48,45,41,73,51,29,30.02,29.87,9,1,13,0.00
2012-3-15,83,62,44,56,47,37,82,61,37,30.03,29.90,9,0,10,0.00
2012-3-16,72,60,50,59,52,45,84,75,62,30.00,29.91,9,1,12,0.10
2012-3-17,79,64,47,60,53,43,88,69,49,30.11,29.98,10,1,13,0.00
2012-3-18,69,60,52,58,53,47,86,77,65,30.16,29.98,9,2,13,0.00
2012-3-19,76,62,51,61,55,47,89,79,58,30.01,29.92,11,1,14,0.02
2012-3-20,74,63,55,62,58,52,90,82,67,30.08,29.98,8,1,9,0.00
2012-3-21,68,60,51,62,55,47,90,83,74,30.15,30.04,8,1,12,0.00
2012-3-22,79,68,56,65,60,53,90,77,60,30.08,29.89,7,1,10,0.00
2012-3-23,83,68,53,66,57,50,90,70,45,29.93,29.76,7,1,10,0.00
2012-3-24,65,60,51,58,55,48,89,85,68,29.76,29.68,8,2,12,0.32
2012-3-25,64,55,49,56,50,46,89,84,71,29.71,29.58,9,2,13,0.10
2012-3-26,59,53,39,52,34,13,82,51,32,30.06,29.64,17,5,26,0.00
2012-3-27,39,32,27,21,16,14,66,51,36,30.18,30.06,7,1,12,0.00
2012-3-31,76,73,70,62,61,60,69,67,64,30.12,30.00,12,11,22,0.78
2012-4-7,73,58,49,61,28,22,77,33,26,30.06,29.63,12,3,21,0.19
2012-4-8,73,55,34,42,32,21,65,43,27,29.93,29.67,13,2,22,0.00
2012-4-9,69,57,43,41,34,25,67,43,32,29.75,29.60,16,4,26,0.00
2012-4-10,65,49,33,43,31,24,85,55,32,29.73,29.55,13,2,18,0.00
2012-4-11,53,42,30,36,30,23,83,64,42,29.89,29.71,13,2,20,0.02
2012-4-12,60,48,38,38,33,28,83,57,37,30.00,29.88,10,2,17,0.02
2012-4-13,68,52,34,40,34,28,81,52,32,30.11,29.98,10,1,16,0.00
2012-4-14,79,58,35,51,40,30,83,54,30,30.07,29.85,12,1,17,0.02
2012-4-15,84,68,54,63,56,50,88,68,44,29.89,29.78,10,1,22,0.06
2012-4-16,89,73,52,67,58,48,87,61,40,29.86,29.70,17,3,20,0.00
2012-4-17,77,65,54,56,44,37,59,46,33,30.07,29.81,10,2,17,0.00
2012-4-18,58,54,51,50,44,32,87,69,40,30.09,29.94,6,0,8,0.16
2012-4-19,70,57,49,56,49,43,89,75,51,29.96,29.81,8,1,12,0.16
2012-4-20,75,59,40,59,49,36,88,70,53,29.83,29.61,15,2,21,0.00
2012-4-21,82,60,50,63,53,46,88,78,49,29.65,29.45,9,1,13,0.53
2012-4-22,52,49,42,48,44,38,88,85,80,29.65,29.31,9,2,16,0.58
2012-4-23,48,43,38,41,37,32,87,80,66,29.35,29.19,14,2,33,0.04
2012-4-24,64,50,33,39,33,29,85,55,33,29.55,29.31,12,2,18,0.04
2012-4-25,52,50,39,43,41,29,75,71,66,29.60,29.54,1,0,4,0.00
2012-4-26,73,60,45,60,48,31,76,64,55,29.81,29.39,10,2,21,0.00
2012-4-27,61,56,40,39,34,27,63,45,37,30.03,29.87,10,3,17,0.00
2012-4-28,58,47,35,39,32,26,82,58,38,30.12,29.95,8,0,12,0.04
2012-4-29,73,54,36,47,38,30,86,57,25,30.08,29.92,8,0,12,0.02
2012-4-30,63,55,40,53,40,27,73,58,39,30.14,29.86,12,2,19,0.00
2012-5-1,86,69,56,67,56,52,87,67,40,29.88,29.78,11,1,18,0.06
2012-5-2,83,68,59,69,61,53,88,79,61,29.91,29.79,11,1,14,0.59
2012-5-3,88,71,57,72,63,54,89,75,54,29.99,29.79,9,1,22,0.00
2012-5-4,88,74,59,73,62,56,89,70,46,29.83,29.68,12,1,16,0.00
2012-5-5,80,71,59,68,62,55,89,73,60,29.81,29.69,9,1,12,0.00
2012-5-6,75,67,63,64,60,57,87,79,67,29.89,29.80,9,1,12,0.00
2012-5-7,70,65,61,60,57,50,86,76,61,29.88,29.78,14,2,21,0.00
2012-5-8,71,66,60,66,58,47,89,77,57,29.82,29.58,10,2,17,0.24
2012-5-9,75,64,56,64,58,51,90,81,59,29.62,29.49,5,0,16,0.14
2012-5-10,65,57,44,53,44,37,88,64,47,29.81,29.47,10,2,20,0.00
2012-5-11,73,59,40,46,41,34,82,54,33,30.02,29.78,10,1,15,0.00
2012-5-12,81,63,42,57,48,37,86,61,35,30.14,30.00,11,1,15,0.00
2012-5-13,84,67,52,62,56,48,87,68,43,30.02,29.89,3,0,7,0.00
2012-5-14,67,63,59,62,59,55,89,87,78,29.92,29.81,9,1,14,1.03
2012-5-15,82,68,60,68,62,56,90,80,59,29.82,29.73,0,0,0,0.04
2012-5-16,86,72,54,68,58,50,89,65,41,29.79,29.66,0,0,0,0.00
2012-5-17,72,62,48,55,45,40,81,56,34,29.96,29.78,7,1,10,0.00
2012-5-18,78,62,43,56,48,39,87,63,40,30.03,29.92,4,0,7,0.00
2012-5-19,82,72,47,60,54,43,87,57,40,30.02,29.91,6,0,10,0.00
2012-5-20,84,69,52,61,56,48,88,64,38,30.02,29.92,8,1,13,0.00
2012-5-21,70,67,63,65,62,55,90,86,75,29.92,29.73,6,0,9,1.17
2012-5-22,82,70,64,71,64,60,91,81,62,29.73,29.62,2,0,9,0.57
2012-5-23,82,70,61,70,63,58,90,80,58,29.79,29.67,8,0,12,0.06
2012-5-24,84,74,65,71,65,62,90,76,56,29.90,29.79,14,0,24,0.08
2012-5-25,87,76,32,100,68,61,90,76,59,29.96,29.89,8,1,12,0.00
2012-5-26,93,79,65,76,70,61,90,76,53,29.98,29.88,8,0,11,0.00
2012-5-27,92,77,67,78,68,61,90,77,55,29.99,29.85,16,1,26,0.28
2012-5-28,93,80,63,76,70,59,89,72,56,29.88,29.69,10,1,23,0.22
2012-5-29,95,81,32,100,72,62,89,68,52,29.74,29.55,9,1,21,1.58
2012-5-30,86,73,61,71,62,56,89,70,48,29.67,29.53,5,0,7,0.08
2012-5-31,81,71,59,60,56,52,86,62,42,29.73,29.57,6,1,11,0.00
2012-6-1,76,67,58,70,62,54,89,84,73,29.72,29.44,9,1,14,1.27
2012-6-2,75,64,50,58,52,46,89,68,47,29.67,29.55,8,0,17,0.00
2012-6-3,80,66,50,60,53,45,84,64,44,29.68,29.52,6,1,12,0.02
2012-6-4,71,64,53,59,52,49,87,66,51,29.62,29.48,5,0,13,0.00
2012-6-5,70,61,52,54,52,47,84,72,54,29.79,29.61,7,1,9,0.00
2012-6-6,77,65,48,60,52,45,88,65,43,29.84,29.76,7,0,10,0.00
2012-6-7,82,65,50,62,54,46,88,68,45,29.86,29.77,5,0,12,0.00
2012-6-8,83,66,32,100,58,46,88,60,40,29.87,29.74,5,0,12,0.00
2012-6-10,92,84,32,100,64,42,78,51,41,29.92,0.00,12,2,12,0.00
2012-6-11,90,76,60,72,64,57,88,68,46,29.95,29.85,21,4,21,0.00
2012-6-12,82,74,67,74,68,62,88,81,71,29.87,29.62,16,2,16,0.96
2012-6-13,77,70,59,63,56,49,89,64,41,29.90,29.69,13,3,13,0.00
2012-6-14,82,70,56,65,58,50,83,67,51,30.02,29.90,8,1,8,0.00
2012-6-15,82,72,59,65,59,54,88,67,46,30.11,30.01,10,1,10,0.00
2012-6-16,82,70,54,62,57,50,89,68,49,30.14,29.99,12,2,12,0.00
2012-6-17,82,70,53,64,57,49,88,66,49,30.01,29.83,15,4,15,0.00
2012-6-18,69,66,62,62,60,56,87,80,71,29.91,29.83,12,2,12,0.04
2012-6-19,90,76,66,76,69,62,89,78,60,29.95,29.86,8,1,8,0.00
2012-6-20,95,82,68,77,71,64,89,70,49,29.97,29.82,8,1,8,0.00
2012-6-21,96,82,69,77,71,65,89,71,49,29.85,29.65,17,1,17,0.00
2012-6-22,93,78,69,77,70,64,89,77,51,29.70,29.59,21,1,21,0.24
2012-6-23,86,76,62,70,62,58,88,66,42,29.84,29.69,12,1,12,0.00
2012-6-24,90,77,59,70,64,55,88,67,45,29.85,29.70,9,1,9,0.00
2012-6-25,83,72,62,68,57,44,88,62,36,29.70,29.57,18,2,18,0.00
2012-6-26,79,68,54,54,49,43,72,52,39,29.74,29.62,15,2,15,0.00
2012-6-27,86,73,53,62,55,46,81,56,38,29.77,29.67,15,1,15,0.00
2012-6-28,96,79,58,68,62,53,87,60,35,29.74,29.55,13,2,13,0.00
2012-6-29,103,87,32,100,71,64,86,62,38,29.69,29.49,32,2,32,0.77
2012-6-30,92,80,67,75,69,63,89,72,49,29.70,29.55,13,1,13,0.72
2012-7-1,97,84,69,78,70,65,89,66,45,29.74,29.62,12,1,12,0.06
2012-7-2,92,80,67,73,67,63,88,66,42,29.81,29.72,8,0,8,0.04
2012-7-3,96,80,66,75,68,62,88,69,40,29.80,29.70,13,1,13,0.02
2012-7-4,98,82,68,79,70,63,88,69,50,29.76,29.62,20,1,20,0.04
2012-7-5,97,84,68,75,70,63,87,63,44,29.71,29.63,15,1,15,0.00
2012-7-6,98,86,72,76,72,66,84,64,46,29.77,29.69,8,0,8,0.00
2012-7-7,102,88,72,81,74,69,88,66,45,29.75,29.63,13,1,13,0.00
2012-7-8,98,82,75,79,74,71,88,77,53,29.70,29.64,13,0,13,0.75
2012-7-9,89,79,71,72,68,65,89,71,51,29.79,29.68,13,2,13,0.67
2012-7-10,90,79,67,71,66,63,88,68,46,29.87,29.78,8,0,8,0.00
2012-7-11,91,78,66,73,67,62,88,72,48,29.97,29.86,14,1,14,0.00
2012-7-12,90,78,63,72,65,60,89,68,45,30.01,29.96,13,1,13,0.00
2012-7-13,86,75,68,70,65,63,88,73,54,30.04,29.98,4,0,4,0.00
2012-7-14,83,74,67,72,68,63,88,80,68,30.03,29.92,7,1,7,0.16
2012-7-15,95,80,72,78,72,68,89,77,52,29.95,29.80,14,1,14,0.16
2012-7-16,96,82,68,79,71,65,88,72,51,29.84,29.67,13,2,13,0.04
2012-7-17,100,85,66,78,70,62,88,64,41,29.75,29.61,10,1,10,0.00
2012-7-18,102,81,71,80,72,66,88,76,47,29.75,29.64,20,1,20,0.53
2012-7-19,92,80,70,77,71,67,89,76,57,29.79,29.65,13,1,13,1.03
2012-7-20,82,73,66,75,69,62,89,86,76,29.82,29.68,10,2,10,0.14
2012-7-21,73,67,64,68,63,60,89,86,80,29.95,29.81,7,2,7,0.26
2012-7-22,84,74,67,72,68,63,89,80,65,29.99,29.91,9,1,9,0.00
2012-7-23,93,80,67,77,70,63,89,74,55,29.94,29.72,10,1,10,0.00
2012-7-24,88,80,70,78,71,64,87,76,64,29.72,29.52,20,2,20,0.00
2012-7-25,86,77,62,65,62,57,85,62,43,29.80,29.65,8,0,8,0.00
2012-7-26,99,79,64,82,69,60,88,74,46,29.67,29.45,16,2,16,0.55
2012-7-27,91,80,72,78,72,68,88,76,60,29.70,29.54,12,1,12,0.02
2012-7-28,91,79,68,76,68,62,88,71,50,29.78,29.68,12,1,12,0.00
2012-7-29,86,77,66,70,65,61,86,68,51,29.85,29.76,9,1,9,0.00
2012-7-30,91,77,62,75,66,58,87,70,52,29.90,29.79,10,1,10,0.00
2012-7-31,89,77,69,74,68,65,88,75,55,29.84,29.68,15,2,15,1.78
2012-8-1,88,74,65,74,67,61,89,78,59,29.74,29.63,17,1,17,0.00
2012-8-2,92,80,65,77,69,61,89,73,52,29.74,29.67,4,0,4,0.00
2012-8-3,94,81,68,78,72,65,89,75,56,29.88,29.72,12,1,12,0.00
2012-8-4,94,83,70,78,72,66,89,70,52,29.95,29.86,21,3,21,0.00
2012-8-5,96,80,71,78,72,66,88,77,55,29.94,29.82,17,2,17,0.30
2012-8-6,92,80,68,77,70,64,89,73,45,29.90,29.80,9,0,9,0.00
2012-8-7,90,77,64,72,67,60,89,73,51,29.84,29.75,8,0,8,0.00
2012-8-8,93,80,67,76,68,64,89,70,40,29.82,29.72,11,1,11,0.00
2012-8-9,94,77,67,76,68,63,89,76,48,29.78,29.63,16,2,16,0.02
2012-8-10,87,74,68,75,68,64,89,82,61,29.67,29.50,14,2,14,0.65
2012-8-11,89,77,67,74,65,58,89,68,47,29.76,29.58,12,1,12,0.00
2012-8-12,86,74,61,68,62,57,87,68,50,29.83,29.75,8,0,8,0.00
2012-8-13,88,73,60,69,62,56,88,71,47,29.88,29.75,11,0,11,0.00
2012-8-14,87,75,68,74,68,63,89,80,57,29.76,29.63,7,0,7,0.45
2012-8-15,83,73,64,71,65,44,89,77,57,29.75,29.66,8,0,8,0.02
2012-8-16,89,75,60,71,63,57,89,69,46,29.82,29.69,10,1,10,0.00
2012-8-17,93,73,61,74,65,58,89,77,46,29.73,29.60,14,1,14,0.65
2012-8-18,83,72,61,67,62,56,89,71,45,29.77,29.69,10,0,10,0.00
2012-8-19,73,65,59,66,60,55,88,84,75,29.80,29.70,7,0,7,0.47
2012-8-20,83,68,61,70,62,58,89,82,60,29.80,29.66,14,1,14,0.28
2012-8-21,81,69,60,68,61,56,90,76,50,29.94,29.80,9,1,9,0.02
2012-8-22,85,72,59,69,62,55,88,73,52,29.98,29.89,7,0,7,0.00
2012-8-23,87,73,59,71,63,55,89,73,45,30.00,29.91,7,0,7,0.00
2012-8-24,89,74,62,73,65,59,89,76,47,30.00,29.93,4,0,4,0.00
2012-8-25,83,73,67,71,65,62,89,77,53,30.03,29.96,12,0,12,0.02
2012-8-26,77,72,69,72,67,64,88,86,82,30.04,29.96,10,1,10,0.96
2012-8-27,90,78,69,74,69,65,89,75,53,29.97,29.75,10,1,10,0.00
2012-8-28,86,78,66,72,66,60,87,69,47,29.79,29.72,8,1,8,0.04
2012-8-29,84,72,59,66,61,55,88,71,47,29.86,29.76,4,0,4,0.00
2012-8-30,86,72,59,67,62,45,88,71,49,29.95,29.85,5,0,5,0.00
2012-8-31,94,77,58,74,64,55,89,68,38,29.95,29.80,12,0,12,0.00
2012-9-1,94,77,67,77,69,63,88,77,57,29.90,29.80,27,3,27,0.02
2012-9-2,82,75,68,73,69,64,89,84,73,29.87,29.78,5,0,5,0.79
2012-9-3,88,77,71,76,71,67,90,81,63,29.86,29.78,18,2,18,5.56
2012-9-4,88,79,72,76,72,68,89,81,66,29.83,29.64,14,2,14,0.06
2012-9-5,92,80,72,76,72,69,89,76,55,29.67,29.60,7,0,7,0.00
2012-9-6,88,78,71,76,70,66,85,78,64,29.73,29.65,8,0,8,0.00
2012-9-7,94,78,66,76,69,62,89,75,50,29.78,29.62,13,1,13,0.00
2012-9-8,87,71,61,74,65,56,89,80,62,29.68,29.44,21,1,21,1.17
2012-9-9,79,65,52,64,54,49,89,70,41,29.80,29.66,20,1,20,0.00
2012-9-10,73,62,52,56,50,47,86,66,44,29.99,29.80,13,2,13,0.00
2012-9-11,76,61,45,58,49,41,88,68,40,30.14,29.99,8,1,8,0.00
2012-9-12,82,64,46,63,53,43,88,71,48,30.18,30.09,9,1,9,0.00
2012-9-13,83,66,51,65,56,47,88,71,48,30.19,30.06,10,1,10,0.00
2012-9-14,84,66,50,65,56,46,89,72,47,30.09,29.91,8,1,8,0.00
2012-9-15,75,66,54,61,53,49,81,64,43,30.08,29.94,12,2,12,0.00
2012-9-16,76,61,48,58,51,44,88,71,49,30.01,29.88,8,1,8,0.00
2012-9-17,79,62,45,63,55,41,88,78,58,29.93,29.75,16,2,16,0.00
2012-9-18,73,69,62,69,64,55,89,87,78,29.75,29.40,20,4,20,1.90
2012-9-19,68,60,47,56,48,42,86,68,43,29.98,29.69,12,2,12,0.00
2012-9-20,75,58,42,58,49,38,89,74,52,30.00,29.85,15,2,15,0.00
2012-9-21,81,66,49,66,57,46,89,74,55,29.87,29.73,12,2,12,0.00
2012-9-22,87,71,60,69,59,47,89,67,44,29.79,29.59,24,3,24,0.00
2012-9-23,70,58,47,51,45,40,82,62,44,29.98,29.79,16,2,16,0.00
2012-9-24,68,56,44,51,44,39,86,66,39,30.05,29.92,12,2,12,0.00
2012-9-25,77,59,39,56,47,35,88,67,39,30.01,29.84,14,2,14,0.00
2012-9-26,81,68,59,66,59,53,85,73,55,29.93,29.85,17,3,17,0.00
2012-9-27,78,69,62,69,62,58,89,80,64,29.98,29.87,12,0,12,0.37
2012-9-28,77,67,58,69,58,50,89,76,56,29.90,29.80,10,0,10,0.22
2012-9-29,68,58,50,53,49,46,87,73,51,29.86,29.73,8,1,8,0.00
2012-9-30,70,56,47,57,50,43,88,79,56,29.74,29.63,13,0,13,0.20
2012-10-1,71,57,46,59,50,43,90,80,57,29.79,29.72,16,1,16,0.02
2012-10-2,66,62,59,62,58,55,89,88,87,29.77,29.70,7,1,7,0.65
2012-10-3,80,69,63,72,64,60,91,87,75,29.93,29.76,1,0,1,0.00
2012-10-4,80,70,58,70,62,52,90,79,52,29.98,29.90,13,1,13,0.02
2012-10-5,83,66,50,65,56,47,89,73,49,29.96,29.73,10,0,10,0.00
2012-10-6,71,58,45,63,50,39,88,75,55,29.89,29.64,19,2,19,0.00
2012-10-7,55,49,41,48,44,37,86,81,69,29.99,29.84,14,1,14,0.04
2012-10-8,50,43,37,45,39,33,89,86,78,30.12,29.98,8,0,8,0.12
2012-10-9,62,51,43,50,45,40,89,80,61,30.05,29.86,7,0,7,0.02
2012-10-10,70,53,42,56,45,38,89,75,52,29.90,29.67,22,1,22,0.00
2012-10-11,62,50,39,41,36,31,82,60,44,30.11,29.90,13,2,13,0.00
2012-10-12,61,45,34,47,35,28,89,70,44,30.24,29.95,17,2,17,0.00
2012-10-13,59,44,29,41,34,25,88,70,49,30.32,30.03,21,2,21,0.00
2012-10-14,74,57,40,57,49,35,86,74,55,30.03,29.67,16,3,16,0.00
2012-10-15,69,64,56,64,55,45,86,73,55,29.67,29.49,27,6,27,0.12
2012-10-16,63,54,40,46,42,35,83,65,47,29.75,29.64,15,2,15,0.00
2012-10-17,68,51,35,51,42,31,88,73,50,29.82,29.69,14,2,14,0.00
2012-10-18,68,56,39,57,49,36,89,79,65,29.74,29.59,21,4,21,0.69
2012-10-19,70,59,49,61,55,45,89,85,72,29.64,29.42,12,1,12,0.10
2012-10-20,65,54,44,55,43,39,89,70,47,29.75,29.48,16,2,16,0.00
2012-10-21,66,50,38,50,40,34,88,69,46,29.95,29.74,14,2,14,0.00
2012-10-22,70,51,34,53,42,31,88,72,48,30.03,29.90,8,0,8,0.00
2012-10-23,77,58,46,61,51,42,88,79,57,29.97,29.83,9,1,9,0.02
2012-10-24,80,64,53,64,55,49,90,75,47,29.94,29.86,12,1,12,0.00
2012-10-25,70,61,52,61,55,48,89,83,73,30.02,29.91,9,1,9,0.00
2012-10-26,68,64,61,60,58,56,87,82,74,29.99,29.86,10,1,10,0.00
2012-10-27,70,62,59,57,55,54,86,78,60,29.86,29.69,10,2,10,0.00
2012-10-28,60,57,50,54,51,47,88,82,75,29.70,29.48,16,5,16,0.26
2012-10-29,50,48,45,47,45,40,89,88,85,29.48,28.53,43,9,43,2.46
2012-10-30,44,42,40,40,38,37,88,87,85,29.27,28.66,24,6,24,0.30
2012-10-31,51,44,40,41,38,36,89,78,66,29.46,29.25,17,5,17,0.02
2012-11-1,52,47,44,41,37,35,72,68,62,29.55,29.44,18,5,18,0.00
2012-11-2,50,44,34,38,34,29,86,68,54,29.75,29.53,20,5,20,0.00
2012-11-3,48,44,42,34,32,30,69,63,58,29.89,29.74,18,5,18,0.00
2012-11-4,50,42,36,34,31,28,82,64,51,29.90,29.83,17,3,17,0.00
2012-11-5,48,41,29,31,28,22,75,59,49,29.99,29.85,12,3,12,0.00
2012-11-6,47,35,24,33,26,19,86,71,52,30.02,29.83,9,1,9,0.00
2012-11-7,42,39,34,29,27,23,77,63,51,29.84,29.73,12,3,12,0.00
2012-11-8,52,44,36,31,24,19,61,46,29,29.90,29.75,22,6,22,0.00
2012-11-9,58,45,34,38,33,27,81,64,47,30.05,29.89,12,2,12,0.00
2012-11-10,65,46,30,45,36,26,88,69,45,30.15,30.02,10,1,10,0.00
2012-11-11,67,50,34,49,40,30,87,69,49,30.25,30.13,7,1,7,0.00
2012-11-12,68,56,41,58,49,36,88,78,69,30.16,29.90,22,6,22,0.12
2012-11-13,49,42,31,44,31,24,85,68,51,30.31,30.03,17,4,17,0.28
2012-11-14,45,36,29,31,27,23,83,70,52,30.37,30.24,13,1,13,0.00
2012-11-15,46,36,28,35,30,24,86,78,63,30.24,30.11,6,0,6,0.00
2012-11-16,53,41,31,37,30,25,88,68,46,30.26,30.11,14,1,14,0.00
2012-11-17,55,40,27,37,29,22,85,68,43,30.42,30.26,12,1,12,0.00
2012-11-18,54,41,29,40,32,24,87,73,48,30.42,30.30,9,1,9,0.00
2012-11-19,50,43,32,39,35,28,85,75,64,30.31,30.04,12,1,12,0.00
2012-11-20,52,39,29,43,33,25,88,80,65,30.04,29.90,6,0,6,0.00
2012-11-21,55,39,27,42,31,23,88,74,46,30.05,29.94,8,1,8,0.00
2012-11-22,57,39,26,41,30,22,87,73,48,30.10,29.93,5,0,5,0.00
2012-11-23,66,44,27,46,34,23,88,68,44,29.94,29.57,24,5,24,0.00
2012-11-24,42,37,33,27,22,19,58,55,48,29.85,29.71,28,8,28,0.00
2012-11-25,46,35,25,28,22,18,78,59,47,29.87,29.71,16,4,16,0.00
2012-11-26,53,36,22,34,26,18,85,68,46,30.01,29.79,10,1,10,0.00
2012-11-27,42,39,35,38,33,30,87,81,67,30.08,29.97,9,2,9,0.26
2012-11-28,47,38,31,36,27,22,83,67,45,30.17,30.04,17,2,17,0.00
2012-11-29,50,35,25,35,25,20,84,67,45,30.24,30.10,12,2,12,0.00
2012-11-30,53,37,24,36,27,20,86,69,44,30.16,30.08,8,1,8,0.00
2012-12-1,50,38,30,40,32,25,86,79,66,30.25,30.13,7,1,7,0.00
2012-12-2,59,44,31,47,38,28,89,81,64,30.19,29.91,9,1,9,0.00
2012-12-3,68,54,41,57,48,37,89,80,67,30.06,29.93,7,0,7,0.00
2012-12-4,74,59,45,59,50,41,90,74,53,30.03,29.78,18,2,18,0.00
2012-12-5,64,50,34,51,36,22,69,58,44,30.14,29.77,18,5,18,0.00
2012-12-6,45,34,24,28,24,18,82,67,51,30.19,29.99,8,1,8,0.00
2012-12-7,43,39,32,39,34,26,88,84,72,29.99,29.77,8,1,8,0.12
2012-12-8,53,45,38,46,41,34,89,86,78,29.84,29.67,6,0,6,0.04
2012-12-9,49,46,44,46,43,40,90,89,88,30.00,29.76,7,1,7,0.34
2012-12-10,53,48,45,50,46,40,91,90,78,29.76,29.37,16,1,16,0.06
2012-12-11,50,42,33,40,34,26,81,72,59,30.03,29.53,18,2,18,0.00
2012-12-12,42,35,28,31,28,24,84,75,61,30.25,30.02,8,1,8,0.00
2012-12-13,46,32,23,34,25,19,88,75,50,30.29,30.13,5,0,5,0.00
2012-12-14,54,34,20,36,26,16,87,73,48,30.14,30.00,7,0,7,0.00
2012-12-15,53,40,27,37,30,23,87,70,50,30.10,29.89,12,1,12,0.00
2012-12-16,49,45,42,42,38,34,87,77,63,29.90,29.64,8,1,8,0.00
2012-12-17,51,46,38,47,42,34,89,87,80,29.67,29.34,9,1,7,0.08
2012-12-18,57,46,33,51,38,27,90,76,60,29.63,29.33,21,4,21,0.00
2012-12-19,54,41,30,41,33,26,88,75,60,29.99,29.60,21,2,21,0.00
2012-12-20,46,39,32,40,34,28,88,82,66,30.01,29.20,17,2,17,0.42
2012-12-21,45,40,37,42,30,24,89,70,60,29.36,29.14,39,9,39,0.35
2012-12-22,41,37,31,26,23,21,65,58,50,29.84,29.35,39,11,39,0.00
2012-12-23,50,35,23,28,23,18,81,63,41,29.85,29.67,17,2,17,0.00
2012-12-24,38,32,26,30,27,21,88,81,66,29.88,29.70,13,1,13,0.00
2012-12-25,45,36,32,39,32,28,89,85,74,30.05,29.71,7,0,7,0.30
2012-12-26,35,32,29,32,28,25,89,85,76,30.05,29.31,10,1,10,0.02
2012-12-27,38,36,34,31,29,13,89,76,66,29.83,29.30,17,2,17,0.12
2012-12-28,40,35,28,28,26,23,83,69,57,29.96,29.81,15,2,15,0.04
2012-12-29,42,35,30,36,30,26,88,80,68,29.82,29.39,21,3,21,0.20
2012-12-30,38,34,26,28,23,18,72,63,55,30.13,29.64,23,7,23,0.00
2012-12-31,42,32,21,31,24,16,83,71,60,30.11,29.77,20,3,20,0.00
2013-1-1,46,40,35,33,30,25,75,68,59,29.83,29.72,14,2,14,0.00